createdAt,value
2018-11-14T00:01:09.743Z,4.13
2018-11-14T00:03:38.216Z,4.10
2018-11-14T00:06:06.810Z,4.40
2018-11-14T00:08:35.404Z,4.13
2018-11-14T00:11:03.933Z,5.00
2018-11-14T00:13:32.525Z,4.37
2018-11-14T00:16:01.036Z,4.00
2018-11-14T00:18:29.530Z,4.33
2018-11-14T00:20:58.085Z,4.80
2018-11-14T00:23:26.613Z,4.23
2018-11-14T00:25:55.097Z,4.53
2018-11-14T00:28:23.553Z,3.90
2018-11-14T00:30:52.045Z,4.23
2018-11-14T00:33:20.548Z,4.17
2018-11-14T00:35:49.404Z,4.60
2018-11-14T00:38:17.501Z,4.10
2018-11-14T00:40:45.948Z,4.43
2018-11-14T00:43:15.517Z,4.60
2018-11-14T00:45:43.985Z,4.57
2018-11-14T00:48:12.481Z,5.40
2018-11-14T00:50:41.036Z,4.40
2018-11-14T00:53:09.580Z,4.20
2018-11-14T00:55:38.101Z,4.50
2018-11-14T00:58:06.829Z,5.10
2018-11-14T01:00:35.393Z,4.30
2018-11-14T01:03:03.911Z,4.63
2018-11-14T01:05:32.410Z,4.07
2018-11-14T01:08:00.900Z,4.40
2018-11-14T01:10:29.505Z,4.10
2018-11-14T01:12:58.105Z,4.30
2018-11-14T01:15:26.634Z,3.83
2018-11-14T01:17:55.204Z,3.90
2018-11-14T01:20:23.685Z,4.03
2018-11-14T01:22:52.241Z,4.20
2018-11-14T01:25:20.800Z,4.03
2018-11-14T01:27:49.303Z,4.10
2018-11-14T01:30:22.152Z,4.17
2018-11-14T01:32:51.152Z,3.60
2018-11-14T01:35:19.832Z,4.20
2018-11-14T01:37:48.445Z,5.77
2018-11-14T01:40:18.736Z,4.50
2018-11-14T01:42:48.700Z,4.13
2018-11-14T01:45:17.230Z,4.63
2018-11-14T01:47:46.023Z,4.27
2018-11-14T01:50:14.516Z,4.60
2018-11-14T01:52:43.021Z,4.73
2018-11-14T01:55:13.400Z,4.63
2018-11-14T01:57:42.982Z,4.13
2018-11-14T02:00:15.033Z,4.47
2018-11-14T02:02:43.485Z,4.80
2018-11-14T02:05:12.269Z,4.17
2018-11-14T02:07:40.770Z,3.97
2018-11-14T02:10:11.169Z,4.10
2018-11-14T02:12:40.170Z,4.63
2018-11-14T02:15:10.893Z,3.80
2018-11-14T02:17:39.601Z,4.17
2018-11-14T02:20:08.601Z,3.43
2018-11-14T02:22:37.153Z,5.23
2018-11-14T02:25:06.203Z,4.20
2018-11-14T02:27:34.628Z,4.10
2018-11-14T02:30:03.217Z,3.97
2018-11-14T02:32:31.725Z,4.33
2018-11-14T02:35:00.185Z,3.97
2018-11-14T02:37:28.691Z,3.90
2018-11-14T02:39:57.157Z,4.20
2018-11-14T02:42:25.631Z,4.00
2018-11-14T02:44:54.092Z,5.40
2018-11-14T02:47:23.612Z,4.07
2018-11-14T02:49:52.096Z,4.20
2018-11-14T02:52:20.688Z,4.00
2018-11-14T02:54:50.222Z,3.93
2018-11-14T02:57:18.655Z,5.03
2018-11-14T02:59:47.179Z,4.07
2018-11-14T03:02:15.681Z,4.10
2018-11-14T03:04:44.225Z,4.10
2018-11-14T03:07:12.673Z,4.07
2018-11-14T03:09:41.219Z,4.13
2018-11-14T03:12:09.749Z,4.13
2018-11-14T03:14:38.345Z,4.80
2018-11-14T03:17:06.946Z,4.87
2018-11-14T03:19:35.448Z,4.03
2018-11-14T03:22:03.950Z,4.57
2018-11-14T03:24:32.362Z,3.83
2018-11-14T03:27:00.969Z,3.70
2018-11-14T03:29:29.436Z,4.60
2018-11-14T03:31:57.913Z,4.10
2018-11-14T03:34:27.413Z,3.97
2018-11-14T03:36:55.921Z,4.93
2018-11-14T03:39:24.389Z,4.23
2018-11-14T03:41:52.880Z,4.93
2018-11-14T03:44:21.384Z,4.20
2018-11-14T03:46:49.818Z,3.23
2018-11-14T03:49:18.329Z,4.10
2018-11-14T03:51:46.814Z,5.57
2018-11-14T03:54:15.360Z,4.30
2018-11-14T03:56:43.895Z,4.30
2018-11-14T03:59:12.329Z,4.27
2018-11-14T04:01:40.804Z,4.47
2018-11-14T04:04:09.308Z,4.97
2018-11-14T04:06:37.785Z,4.63
2018-11-14T04:09:09.397Z,3.83
2018-11-14T04:11:37.861Z,4.17
2018-11-14T04:14:06.549Z,4.50
2018-11-14T04:16:35.010Z,4.37
2018-11-14T04:19:03.490Z,4.60
2018-11-14T04:21:31.966Z,3.80
2018-11-14T04:24:00.410Z,4.90
2018-11-14T04:26:28.912Z,4.90
2018-11-14T04:28:57.398Z,4.63
2018-11-14T04:31:25.882Z,4.90
2018-11-14T04:33:54.356Z,4.97
2018-11-14T04:36:22.837Z,4.23
2018-11-14T04:38:52.260Z,5.10
2018-11-14T04:41:21.040Z,5.10
2018-11-14T04:43:49.601Z,4.67
2018-11-14T04:46:18.126Z,4.80
2018-11-14T04:48:46.649Z,4.47
2018-11-14T04:51:15.269Z,4.53
2018-11-14T04:53:43.756Z,4.10
2018-11-14T04:56:12.280Z,4.50
2018-11-14T04:58:40.706Z,4.23
2018-11-14T05:01:10.249Z,4.60
2018-11-14T05:03:38.693Z,4.20
2018-11-14T05:06:07.185Z,4.43
2018-11-14T05:08:35.696Z,4.90
2018-11-14T05:11:04.156Z,5.00
2018-11-14T05:13:32.630Z,4.90
2018-11-14T05:16:01.146Z,5.23
2018-11-14T05:18:29.580Z,6.00
2018-11-14T05:20:58.072Z,5.80
2018-11-14T05:23:26.549Z,4.80
2018-11-14T05:25:56.072Z,5.27
2018-11-14T05:28:24.528Z,5.43
2018-11-14T05:30:53.065Z,5.70
2018-11-14T05:33:21.522Z,5.27
2018-11-14T05:35:50.028Z,5.97
2018-11-14T05:38:18.547Z,6.40
2018-11-14T05:40:47.134Z,6.30
2018-11-14T05:43:15.710Z,6.10
2018-11-14T05:45:44.229Z,6.87
2018-11-14T05:48:12.725Z,6.47
2018-11-14T05:50:41.200Z,6.00
2018-11-14T05:53:09.678Z,6.43
2018-11-14T05:55:38.166Z,6.47
2018-11-14T05:58:06.672Z,7.17
2018-11-14T06:00:35.136Z,6.30
2018-11-14T06:03:04.325Z,5.57
2018-11-14T06:05:32.873Z,6.60
2018-11-14T06:08:03.340Z,7.23
2018-11-14T06:10:31.854Z,6.00
2018-11-14T06:13:00.301Z,5.80
2018-11-14T06:15:28.903Z,6.27
2018-11-14T06:17:58.266Z,7.00
2018-11-14T06:20:27.810Z,6.70
2018-11-14T06:22:56.308Z,6.83
2018-11-14T06:25:31.635Z,6.50
2018-11-14T06:28:01.159Z,7.73
2018-11-14T06:30:29.900Z,6.70
2018-11-14T06:32:58.901Z,6.70
2018-11-14T06:35:27.468Z,5.93
2018-11-14T06:37:56.189Z,6.63
2018-11-14T06:40:24.688Z,7.40
2018-11-14T06:42:53.137Z,6.70
2018-11-14T06:45:23.080Z,7.10
2018-11-14T06:47:52.901Z,7.57
2018-11-14T06:50:21.448Z,8.73
2018-11-14T06:52:51.110Z,8.20
2018-11-14T06:55:20.289Z,7.80
2018-11-14T06:57:48.740Z,8.10
2018-11-14T07:00:23.785Z,8.33
2018-11-14T07:02:53.105Z,8.33
2018-11-14T07:05:21.734Z,7.20
2018-11-14T07:07:50.201Z,7.50
2018-11-14T07:10:20.359Z,6.70
2018-11-14T07:12:48.848Z,7.00
2018-11-14T07:15:18.669Z,7.20
2018-11-14T07:17:48.846Z,7.00
2018-11-14T07:20:29.206Z,6.87
2018-11-14T07:22:57.715Z,6.97
2018-11-14T07:25:26.268Z,7.63
2018-11-14T07:27:54.796Z,8.50
2018-11-14T07:30:26.361Z,8.13
2018-11-14T07:33:04.797Z,8.23
2018-11-14T07:35:33.419Z,9.30
2018-11-14T07:38:51.042Z,8.10
2018-11-14T07:41:26.944Z,7.53
2018-11-14T07:43:55.429Z,7.80
2018-11-14T07:46:24.831Z,8.73
2018-11-14T07:48:53.346Z,8.40
2018-11-14T07:51:21.811Z,8.70
2018-11-14T07:53:50.474Z,9.13
2018-11-14T07:56:18.997Z,8.23
2018-11-14T07:58:47.453Z,9.03
2018-11-14T08:01:16.055Z,10.87
2018-11-14T08:03:44.905Z,10.83
2018-11-14T08:06:13.816Z,12.63
2018-11-14T08:08:42.696Z,13.20
2018-11-14T08:11:11.213Z,14.03
2018-11-14T08:13:41.197Z,15.80
2018-11-14T08:16:09.683Z,15.63
2018-11-14T08:18:38.216Z,15.03
2018-11-14T08:21:07.270Z,16.10
2018-11-14T08:23:35.756Z,16.57
2018-11-14T08:26:04.272Z,16.80
2018-11-14T08:28:32.809Z,17.63
2018-11-14T08:31:01.283Z,16.80
2018-11-14T08:33:29.761Z,15.80
2018-11-14T08:35:58.177Z,16.87
2018-11-14T08:38:26.680Z,17.10
2018-11-14T08:40:55.140Z,16.27
2018-11-14T08:43:23.573Z,16.43
2018-11-14T08:45:52.046Z,17.20
2018-11-14T08:48:20.555Z,16.00
2018-11-14T08:50:49.061Z,16.20
2018-11-14T08:53:17.552Z,16.67
2018-11-14T08:55:45.985Z,16.20
2018-11-14T08:58:14.466Z,17.37
2018-11-14T09:00:42.976Z,16.63
2018-11-14T09:03:12.977Z,16.10
2018-11-14T09:05:41.490Z,16.50
2018-11-14T09:08:09.928Z,17.00
2018-11-14T09:10:38.449Z,15.97
2018-11-14T09:13:11.187Z,15.73
2018-11-14T09:15:39.801Z,14.83
2018-11-14T09:18:08.363Z,15.53
2018-11-14T09:20:36.837Z,15.10
2018-11-14T09:23:05.952Z,15.33
2018-11-14T09:25:34.444Z,14.50
2018-11-14T09:28:03.530Z,13.03
2018-11-14T09:30:32.047Z,13.10
2018-11-14T09:33:00.546Z,13.60
2018-11-14T09:35:29.381Z,12.60
2018-11-14T09:37:59.212Z,11.77
2018-11-14T09:40:28.616Z,11.63
2018-11-14T09:42:57.150Z,11.60
2018-11-14T09:45:26.913Z,11.77
2018-11-14T09:47:55.399Z,11.97
2018-11-14T09:50:26.844Z,11.00
2018-11-14T09:52:57.556Z,12.07
2018-11-14T09:55:26.045Z,11.03
2018-11-14T09:57:54.502Z,10.93
2018-11-14T10:00:24.348Z,10.00
2018-11-14T10:02:54.694Z,9.73
2018-11-14T10:05:23.865Z,9.27
2018-11-14T10:07:52.404Z,9.13
2018-11-14T10:10:21.748Z,9.70
2018-11-14T10:12:50.289Z,9.90
2018-11-14T10:15:22.086Z,10.10
2018-11-14T10:17:50.607Z,9.43
2018-11-14T10:20:20.629Z,8.53
2018-11-14T10:22:49.160Z,9.97
2018-11-14T10:25:18.322Z,8.83
2018-11-14T10:27:47.589Z,9.40
2018-11-14T10:30:18.172Z,8.53
2018-11-14T10:32:47.292Z,8.50
2018-11-14T10:35:15.741Z,17.47
2018-11-14T10:37:44.576Z,8.30
2018-11-14T10:40:15.705Z,9.20
2018-11-14T10:42:44.636Z,17.90
2018-11-14T10:45:14.613Z,11.27
2018-11-14T10:47:43.225Z,8.03
2018-11-14T10:50:15.161Z,10.53
2018-11-14T10:52:43.758Z,8.03
2018-11-14T10:55:13.161Z,9.20
2018-11-14T10:57:41.728Z,9.33
2018-11-14T11:00:18.344Z,9.07
2018-11-14T11:02:52.262Z,8.33
2018-11-14T11:05:26.161Z,8.17
2018-11-14T11:07:59.986Z,9.20
2018-11-14T11:10:33.847Z,8.70
2018-11-14T11:13:09.472Z,8.90
2018-11-14T11:15:43.321Z,8.53
2018-11-14T11:18:15.200Z,7.67
2018-11-14T11:20:43.682Z,9.23
2018-11-14T11:23:12.234Z,9.90
2018-11-14T11:25:41.241Z,8.20
2018-11-14T11:28:09.988Z,9.00
2018-11-14T11:30:38.968Z,8.57
2018-11-14T11:33:07.580Z,9.10
2018-11-14T11:35:36.196Z,10.43
2018-11-14T11:38:05.246Z,8.17
2018-11-14T11:40:34.060Z,8.17
2018-11-14T11:43:03.480Z,8.17
2018-11-14T11:45:32.453Z,8.43
2018-11-14T11:48:01.000Z,7.50
2018-11-14T11:50:29.722Z,7.60
2018-11-14T11:52:58.308Z,6.67
2018-11-14T11:55:26.796Z,7.00
2018-11-14T11:57:55.749Z,6.80
2018-11-14T12:00:24.433Z,7.10
2018-11-14T12:02:52.745Z,5.83
2018-11-14T12:05:21.204Z,6.13
2018-11-14T12:07:49.769Z,5.90
2018-11-14T12:10:18.231Z,4.60
2018-11-14T12:12:46.719Z,5.30
2018-11-14T12:15:15.276Z,5.40
2018-11-14T12:17:44.105Z,5.40
2018-11-14T12:20:13.924Z,4.50
2018-11-14T12:22:42.875Z,4.60
2018-11-14T12:25:13.484Z,4.20
2018-11-14T12:27:42.014Z,5.10
2018-11-14T12:30:15.141Z,4.40
2018-11-14T12:32:43.613Z,4.07
2018-11-14T12:35:13.817Z,3.53
2018-11-14T12:37:42.604Z,4.80
2018-11-14T12:40:12.168Z,4.97
2018-11-14T12:42:40.656Z,4.60
2018-11-14T12:45:11.328Z,4.40
2018-11-14T12:47:40.066Z,4.40
2018-11-14T12:50:09.370Z,4.47
2018-11-14T12:52:37.875Z,3.47
2018-11-14T12:55:07.974Z,4.70
2018-11-14T12:57:36.400Z,3.80
2018-11-14T13:00:05.669Z,4.30
2018-11-14T13:02:34.093Z,5.30
2018-11-14T13:05:02.630Z,3.73
2018-11-14T13:07:31.420Z,4.37
2018-11-14T13:09:59.894Z,4.67
2018-11-14T13:12:28.477Z,3.60
2018-11-14T13:14:56.916Z,3.90
2018-11-14T13:17:25.356Z,3.83
2018-11-14T13:26:53.321Z,3.30
2018-11-14T13:29:21.864Z,3.00
2018-11-14T13:31:50.303Z,3.83
2018-11-14T13:34:18.818Z,3.20
2018-11-14T13:36:47.267Z,3.50
2018-11-14T13:39:15.768Z,3.03
2018-11-14T13:41:44.245Z,3.43
2018-11-14T13:44:12.714Z,3.40
2018-11-14T13:46:41.245Z,3.03
2018-11-14T13:49:09.935Z,3.50
2018-11-14T13:51:38.425Z,3.90
2018-11-14T13:54:06.932Z,3.70
2018-11-14T13:56:35.436Z,3.30
2018-11-14T13:59:03.901Z,3.20
2018-11-14T14:01:32.411Z,3.53
2018-11-14T14:04:00.889Z,3.60
2018-11-14T14:06:29.813Z,3.10
2018-11-14T14:08:58.233Z,2.87
2018-11-14T14:11:26.709Z,3.20
2018-11-14T14:14:00.547Z,2.90
2018-11-14T14:16:29.164Z,3.43
2018-11-14T14:18:57.504Z,2.73
2018-11-14T14:21:26.041Z,3.43
2018-11-14T14:23:54.556Z,3.30
2018-11-14T14:26:23.173Z,2.90
2018-11-14T14:28:51.694Z,3.40
2018-11-14T14:31:20.205Z,3.30
2018-11-14T14:33:48.685Z,9.73
2018-11-14T14:36:17.193Z,3.30
2018-11-14T14:38:45.689Z,3.13
2018-11-14T14:41:14.154Z,2.90
2018-11-14T14:43:42.639Z,2.23
2018-11-14T14:46:11.096Z,2.10
2018-11-14T14:48:39.706Z,2.10
2018-11-14T14:51:08.212Z,2.00
2018-11-14T14:53:36.665Z,8.70
2018-11-14T14:56:05.482Z,6.33
2018-11-14T14:58:33.908Z,2.30
2018-11-14T15:01:03.494Z,2.53
2018-11-14T15:03:32.106Z,2.10
2018-11-14T15:06:00.595Z,1.87
2018-11-14T15:08:29.056Z,2.97
2018-11-14T15:10:57.561Z,2.30
2018-11-14T15:13:26.144Z,2.30
2018-11-14T15:15:54.621Z,2.13
2018-11-14T15:18:23.085Z,2.63
2018-11-14T15:20:51.707Z,2.67
2018-11-14T15:23:20.164Z,3.37
2018-11-14T15:25:48.676Z,2.77
2018-11-14T15:28:17.156Z,3.40
2018-11-14T15:30:45.616Z,2.33
2018-11-14T15:33:14.112Z,2.80
2018-11-14T15:35:42.650Z,2.20
2018-11-14T15:38:11.182Z,2.40
2018-11-14T15:40:39.693Z,2.37
2018-11-14T15:43:08.283Z,2.30
2018-11-14T15:45:36.735Z,2.20
2018-11-14T15:48:05.668Z,2.20
2018-11-14T15:50:34.269Z,5.80
2018-11-14T15:53:02.819Z,2.40
2018-11-14T15:55:31.244Z,1.93
2018-11-14T15:57:59.817Z,2.23
2018-11-14T16:00:29.548Z,2.90
2018-11-14T16:02:58.041Z,2.87
2018-11-14T16:05:27.642Z,2.70
2018-11-14T16:07:57.565Z,2.90
2018-11-14T16:10:26.981Z,2.37
2018-11-14T16:12:55.978Z,2.60
2018-11-14T16:15:26.245Z,8.57
2018-11-14T16:17:54.847Z,3.97
2018-11-14T16:20:24.644Z,2.63
2018-11-14T16:22:53.202Z,2.77
2018-11-14T16:25:23.065Z,2.17
2018-11-14T16:27:53.021Z,2.80
2018-11-14T16:30:25.746Z,2.70
2018-11-14T16:32:55.426Z,2.33
2018-11-14T16:35:23.865Z,2.70
2018-11-14T16:37:52.373Z,3.03
2018-11-14T16:40:22.220Z,4.30
2018-11-14T16:42:51.688Z,2.83
2018-11-14T16:45:20.331Z,2.93
2018-11-14T16:47:49.008Z,2.50
2018-11-14T16:50:18.568Z,2.10
2018-11-14T16:52:47.105Z,3.30
2018-11-14T16:55:16.936Z,2.63
2018-11-14T16:57:46.372Z,3.00
2018-11-14T17:00:17.275Z,2.77
2018-11-14T17:02:45.949Z,2.77
2018-11-14T17:05:14.797Z,3.50
2018-11-14T17:07:43.403Z,4.03
2018-11-14T17:10:16.336Z,3.30
2018-11-14T17:12:45.649Z,3.70
2018-11-14T17:15:15.654Z,4.20
2018-11-14T17:17:44.232Z,3.57
2018-11-14T17:20:13.980Z,3.47
2018-11-14T17:22:43.148Z,4.20
2018-11-14T17:25:12.603Z,3.87
2018-11-14T17:27:41.864Z,4.03
2018-11-14T17:30:13.197Z,4.60
2018-11-14T17:32:42.033Z,4.00
2018-11-14T17:35:11.465Z,4.50
2018-11-14T17:37:41.124Z,4.77
2018-11-14T17:40:11.890Z,4.10
2018-11-14T17:42:41.112Z,5.20
2018-11-14T17:45:12.086Z,5.00
2018-11-14T17:47:40.744Z,5.00
2018-11-14T17:50:17.268Z,4.90
2018-11-14T17:52:46.473Z,4.77
2018-11-14T17:55:15.746Z,5.23
2018-11-14T17:57:44.293Z,5.10
2018-11-14T18:00:14.449Z,6.10
2018-11-14T18:02:43.707Z,5.50
2018-11-14T18:05:14.177Z,5.33
2018-11-14T18:07:43.581Z,5.73
2018-11-14T18:10:14.958Z,5.80
2018-11-14T18:12:44.344Z,5.77
2018-11-14T18:15:13.223Z,5.80
2018-11-14T18:17:42.103Z,6.17
2018-11-14T18:20:13.969Z,6.35
2018-11-14T18:22:43.159Z,6.63
2018-11-14T18:25:12.060Z,5.73
2018-11-14T18:27:40.589Z,5.60
2018-11-14T18:30:12.954Z,7.10
2018-11-14T18:32:41.503Z,6.90
2018-11-14T18:35:12.272Z,6.13
2018-11-14T18:37:41.153Z,5.80
2018-11-14T18:40:12.213Z,6.60
2018-11-14T18:42:41.140Z,6.20
2018-11-14T18:45:14.864Z,6.70
2018-11-14T18:47:43.833Z,7.07
2018-11-14T18:50:13.539Z,7.07
2018-11-14T18:52:42.400Z,8.63
2018-11-14T18:55:12.595Z,7.60
2018-11-14T18:57:41.470Z,7.50
2018-11-14T19:00:13.718Z,8.30
2018-11-14T19:02:42.653Z,8.13
2018-11-14T19:05:11.512Z,8.77
2018-11-14T19:07:40.678Z,8.50
2018-11-14T19:10:10.817Z,9.40
2018-11-14T19:12:43.216Z,12.03
2018-11-14T19:15:14.156Z,9.30
2018-11-14T19:17:42.652Z,9.10
2018-11-14T19:20:27.792Z,9.90
2018-11-14T19:22:58.361Z,10.27
2018-11-14T19:25:28.459Z,10.30
2018-11-14T19:27:57.921Z,14.67
2018-11-14T19:30:29.470Z,10.50
2018-11-14T19:32:58.537Z,10.47
2018-11-14T19:35:27.041Z,10.40
2018-11-14T19:37:56.241Z,10.20
2018-11-14T19:40:27.053Z,10.53
2018-11-14T19:42:57.028Z,11.20
2018-11-14T19:45:27.001Z,10.93
2018-11-14T19:47:56.972Z,11.23
2018-11-14T19:50:25.889Z,10.40
2018-11-14T19:59:58.041Z,11.67
2018-11-14T20:02:26.631Z,11.93
2018-11-14T20:04:56.188Z,11.90
2018-11-14T20:07:24.730Z,12.50
2018-11-14T20:09:54.301Z,11.90
2018-11-14T20:12:22.890Z,11.97
2018-11-14T20:14:51.536Z,11.40
2018-11-14T20:17:20.065Z,11.57
2018-11-14T20:19:48.592Z,11.93
2018-11-14T20:22:17.149Z,11.23
2018-11-14T20:24:45.669Z,9.87
2018-11-14T20:27:15.017Z,10.53
2018-11-14T20:29:43.775Z,10.23
2018-11-14T20:32:12.729Z,11.70
2018-11-14T20:34:42.524Z,10.73
2018-11-14T20:37:11.704Z,10.50
2018-11-14T20:39:41.353Z,11.03
2018-11-14T20:42:10.202Z,11.33
2018-11-14T20:44:38.653Z,12.33
2018-11-14T20:47:07.898Z,11.73
2018-11-14T20:49:36.521Z,12.30
2018-11-14T20:52:05.292Z,11.80
2018-11-14T20:54:33.822Z,13.37
2018-11-14T20:57:02.983Z,13.07
2018-11-14T20:59:31.505Z,13.50
2018-11-14T21:01:59.965Z,13.40
2018-11-14T21:04:28.433Z,14.47
2018-11-14T21:06:56.956Z,14.50
2018-11-14T21:09:25.383Z,19.50
2018-11-14T21:11:54.049Z,22.80
2018-11-14T21:14:22.612Z,21.70
2018-11-14T21:16:53.501Z,13.67
2018-11-14T21:19:22.069Z,16.67
2018-11-14T21:21:50.560Z,14.47
2018-11-14T21:24:19.097Z,15.13
2018-11-14T21:26:47.599Z,15.10
2018-11-14T21:29:16.153Z,15.40
2018-11-14T21:31:44.631Z,23.20
2018-11-14T21:34:13.085Z,18.00
2018-11-14T21:36:41.605Z,17.50
2018-11-14T21:39:12.409Z,17.00
2018-11-14T21:41:41.254Z,17.30
2018-11-14T21:44:09.764Z,19.77
2018-11-14T21:46:38.481Z,18.57
2018-11-14T21:49:11.252Z,18.30
2018-11-14T21:51:39.778Z,18.80
2018-11-14T21:54:08.225Z,23.50
2018-11-14T21:56:36.729Z,26.90
2018-11-14T21:59:05.871Z,20.57
2018-11-14T22:01:34.405Z,21.00
2018-11-14T22:04:02.933Z,19.23
2018-11-14T22:06:31.469Z,19.27
2018-11-14T22:08:59.996Z,19.43
2018-11-14T22:11:28.583Z,19.10
2018-11-14T22:13:57.367Z,20.37
2018-11-14T22:16:26.040Z,19.43
2018-11-14T22:18:54.538Z,20.30
2018-11-14T22:21:23.365Z,19.10
2018-11-14T22:23:51.727Z,19.23
2018-11-14T22:26:20.376Z,20.97
2018-11-14T22:28:48.960Z,19.17
2018-11-14T22:31:17.529Z,18.67
2018-11-14T22:33:45.979Z,20.63
2018-11-14T22:36:14.449Z,18.23
2018-11-14T22:38:42.916Z,20.37
2018-11-14T22:41:11.515Z,18.30
2018-11-14T22:43:40.022Z,18.20
2018-11-14T22:46:08.512Z,18.97
2018-11-14T22:48:36.978Z,18.67
2018-11-14T22:51:06.414Z,18.50
2018-11-14T22:53:34.989Z,19.10
2018-11-14T22:56:03.488Z,17.77
2018-11-14T22:58:32.024Z,18.47
2018-11-14T23:01:00.633Z,18.03
2018-11-14T23:03:29.177Z,18.33
2018-11-14T23:05:57.722Z,17.13
2018-11-14T23:08:26.231Z,18.97
2018-11-14T23:10:55.805Z,17.53
2018-11-14T23:13:24.365Z,17.90
2018-11-14T23:15:52.911Z,17.33
2018-11-14T23:18:21.463Z,20.43
2018-11-14T23:20:50.608Z,18.70
2018-11-14T23:23:19.205Z,17.13
2018-11-14T23:25:47.624Z,18.40
2018-11-14T23:28:16.208Z,17.57
2018-11-14T23:30:44.740Z,19.43
2018-11-14T23:33:13.188Z,18.03
2018-11-14T23:35:41.697Z,18.00
2018-11-14T23:38:10.179Z,19.30
2018-11-14T23:40:38.644Z,19.53
2018-11-14T23:43:07.157Z,18.93
2018-11-14T23:45:35.631Z,17.80
2018-11-14T23:48:04.223Z,18.57
2018-11-14T23:50:33.020Z,16.93
2018-11-14T23:53:02.281Z,18.57
2018-11-14T23:55:31.404Z,17.67
2018-11-14T23:58:00.192Z,18.33
